createdAt,value
2022-10-18T00:00:17.047Z,68.74
2022-10-18T00:01:09.104Z,68.57
2022-10-18T00:02:09.227Z,68.46
2022-10-18T00:03:09.096Z,68.80
2022-10-18T00:04:09.077Z,68.46
2022-10-18T00:05:15.375Z,68.63
2022-10-18T00:06:09.258Z,68.80
2022-10-18T00:07:09.106Z,68.52
2022-10-18T00:08:09.020Z,68.74
2022-10-18T00:09:08.997Z,68.46
2022-10-18T00:10:15.292Z,68.41
2022-10-18T00:11:08.963Z,68.63
2022-10-18T00:12:08.993Z,68.52
2022-10-18T00:13:08.952Z,69.14
2022-10-18T00:14:09.009Z,68.46
2022-10-18T00:15:16.471Z,69.08
2022-10-18T00:16:08.961Z,68.69
2022-10-18T00:17:08.974Z,68.63
2022-10-18T00:18:08.866Z,68.63
2022-10-18T00:19:09.135Z,68.57
2022-10-18T00:20:08.900Z,68.29
2022-10-18T00:21:16.624Z,68.86
2022-10-18T00:22:09.215Z,68.57
2022-10-18T00:23:08.805Z,69.03
2022-10-18T00:24:08.865Z,68.63
2022-10-18T00:25:08.802Z,68.69
2022-10-18T00:26:09.059Z,68.86
2022-10-18T00:27:15.176Z,68.57
2022-10-18T00:28:08.778Z,68.57
2022-10-18T00:29:08.800Z,68.69
2022-10-18T00:30:08.743Z,68.63
2022-10-18T00:31:08.699Z,68.97
2022-10-18T00:32:09.240Z,68.91
2022-10-18T00:33:15.004Z,68.74
2022-10-18T00:34:09.026Z,68.74
2022-10-18T00:35:08.665Z,68.80
2022-10-18T00:36:08.643Z,68.63
2022-10-18T00:37:08.770Z,68.52
2022-10-18T00:38:08.613Z,68.97
2022-10-18T00:39:15.261Z,68.74
2022-10-18T00:40:08.597Z,68.74
2022-10-18T00:41:09.414Z,68.52
2022-10-18T00:42:08.633Z,69.03
2022-10-18T00:43:09.397Z,68.52
2022-10-18T00:44:08.577Z,68.69
2022-10-18T00:45:14.935Z,68.86
2022-10-18T00:46:08.528Z,68.46
2022-10-18T00:47:08.621Z,68.35
2022-10-18T00:48:08.693Z,68.52
2022-10-18T00:49:09.145Z,68.46
2022-10-18T00:50:08.883Z,68.46
2022-10-18T00:51:17.689Z,68.86
2022-10-18T00:52:08.856Z,68.74
2022-10-18T00:53:08.454Z,68.57
2022-10-18T00:54:08.425Z,68.63
2022-10-18T00:55:12.560Z,68.35
2022-10-18T00:56:08.414Z,68.41
2022-10-18T00:57:14.696Z,68.69
2022-10-18T00:58:08.375Z,68.63
2022-10-18T00:59:08.722Z,68.63
2022-10-18T01:00:08.346Z,68.63
2022-10-18T01:01:08.346Z,68.63
2022-10-18T01:02:14.697Z,68.97
2022-10-18T01:03:08.304Z,68.63
2022-10-18T01:04:08.347Z,68.86
2022-10-18T01:05:10.625Z,68.52
2022-10-18T01:06:08.315Z,69.03
2022-10-18T01:07:14.666Z,68.86
2022-10-18T01:08:08.297Z,68.63
2022-10-18T01:09:08.274Z,68.63
2022-10-18T01:10:23.663Z,68.52
2022-10-18T01:11:08.247Z,68.69
2022-10-18T01:12:09.206Z,68.80
2022-10-18T01:13:14.568Z,68.80
2022-10-18T01:14:08.493Z,68.74
2022-10-18T01:15:08.353Z,68.74
2022-10-18T01:16:08.168Z,68.97
2022-10-18T01:17:08.135Z,68.86
2022-10-18T01:18:14.469Z,68.97
2022-10-18T01:19:08.136Z,68.69
2022-10-18T01:20:08.102Z,68.91
2022-10-18T01:21:08.099Z,68.69
2022-10-18T01:22:08.113Z,68.80
2022-10-18T01:23:14.749Z,68.86
2022-10-18T01:24:08.054Z,68.97
2022-10-18T01:25:08.125Z,68.74
2022-10-18T01:26:08.037Z,68.74
2022-10-18T01:27:08.353Z,68.57
2022-10-18T01:28:14.612Z,68.74
2022-10-18T01:29:08.030Z,68.80
2022-10-18T01:30:08.012Z,68.86
2022-10-18T01:31:07.947Z,68.29
2022-10-18T01:32:07.956Z,68.86
2022-10-18T01:33:07.940Z,68.74
2022-10-18T01:34:14.696Z,68.63
2022-10-18T01:35:07.890Z,68.74
2022-10-18T01:36:07.866Z,68.41
2022-10-18T01:37:07.888Z,68.35
2022-10-18T01:38:07.926Z,68.46
2022-10-18T01:39:07.867Z,68.52
2022-10-18T01:40:14.498Z,68.86
2022-10-18T01:41:11.816Z,68.86
2022-10-18T01:42:09.345Z,68.86
2022-10-18T01:43:08.120Z,68.46
2022-10-18T01:44:07.804Z,68.35
2022-10-18T01:45:52.224Z,115.04
2022-10-18T01:46:52.264Z,94.60
2022-10-18T01:47:52.226Z,84.40
2022-10-18T01:48:52.214Z,79.14
2022-10-18T01:49:52.504Z,76.67
2022-10-18T01:50:58.455Z,74.36
2022-10-18T01:51:52.152Z,72.49
2022-10-18T01:52:52.245Z,71.93
2022-10-18T01:53:52.135Z,70.78
2022-10-18T01:54:52.956Z,70.48
2022-10-18T01:55:58.431Z,69.83
2022-10-18T01:56:52.085Z,69.83
2022-10-18T01:57:52.089Z,69.60
2022-10-18T01:58:52.099Z,69.20
2022-10-18T01:59:52.072Z,69.26
2022-10-18T02:00:52.071Z,69.26
2022-10-18T02:02:02.321Z,69.08
2022-10-18T02:02:52.042Z,69.03
2022-10-18T02:03:52.186Z,68.86
2022-10-18T02:04:52.293Z,68.97
2022-10-18T02:05:51.988Z,69.20
2022-10-18T02:06:58.673Z,68.74
2022-10-18T02:08:00.316Z,68.69
2022-10-18T02:08:52.922Z,68.91
2022-10-18T02:09:55.147Z,69.08
2022-10-18T02:10:51.945Z,68.80
2022-10-18T02:11:51.968Z,68.63
2022-10-18T02:12:58.245Z,68.52
2022-10-18T02:13:51.923Z,68.74
2022-10-18T02:14:51.843Z,68.46
2022-10-18T02:15:51.803Z,68.29
2022-10-18T02:16:51.865Z,68.52
2022-10-18T02:17:58.544Z,68.46
2022-10-18T02:18:51.858Z,68.52
2022-10-18T02:19:51.816Z,68.52
2022-10-18T02:20:51.828Z,68.41
2022-10-18T02:21:51.796Z,68.52
2022-10-18T02:22:51.773Z,68.46
2022-10-18T02:23:58.484Z,68.29
2022-10-18T02:24:51.726Z,68.29
2022-10-18T02:25:52.020Z,68.41
2022-10-18T02:26:51.743Z,68.41
2022-10-18T02:27:51.777Z,68.41
2022-10-18T02:28:58.067Z,68.41
2022-10-18T02:29:51.736Z,68.29
2022-10-18T02:30:52.468Z,68.74
2022-10-18T02:31:51.669Z,68.46
2022-10-18T02:32:51.684Z,68.69
2022-10-18T02:33:51.659Z,68.57
2022-10-18T02:34:57.988Z,68.35
2022-10-18T02:35:51.927Z,68.24
2022-10-18T02:36:51.911Z,68.41
2022-10-18T02:37:51.615Z,68.29
2022-10-18T02:38:51.599Z,68.29
2022-10-18T02:39:57.924Z,68.18
2022-10-18T02:40:51.519Z,68.24
2022-10-18T02:41:51.517Z,68.41
2022-10-18T02:42:51.537Z,68.52
2022-10-18T02:43:51.527Z,68.24
2022-10-18T02:44:57.777Z,68.74
2022-10-18T02:45:51.601Z,68.29
2022-10-18T02:46:51.471Z,68.41
2022-10-18T02:47:51.501Z,68.29
2022-10-18T02:48:51.458Z,68.52
2022-10-18T02:49:51.409Z,68.52
2022-10-18T02:50:57.818Z,68.74
2022-10-18T02:51:51.475Z,68.46
2022-10-18T02:52:51.760Z,68.69
2022-10-18T02:53:51.359Z,68.52
2022-10-18T02:54:51.391Z,68.52
2022-10-18T02:55:57.659Z,68.52
2022-10-18T02:56:51.344Z,68.97
2022-10-18T02:57:51.331Z,68.57
2022-10-18T02:58:51.598Z,68.52
2022-10-18T02:59:51.277Z,68.91
2022-10-18T03:00:51.283Z,68.86
2022-10-18T03:01:57.958Z,68.57
2022-10-18T03:02:51.263Z,68.80
2022-10-18T03:03:51.560Z,68.74
2022-10-18T03:04:51.303Z,68.86
2022-10-18T03:05:51.247Z,68.74
2022-10-18T03:06:57.562Z,68.86
2022-10-18T03:07:51.182Z,69.08
2022-10-18T03:08:51.231Z,68.91
2022-10-18T03:09:51.226Z,69.03
2022-10-18T03:10:51.118Z,69.08
2022-10-18T03:11:51.150Z,69.08
2022-10-18T03:12:57.583Z,69.08
2022-10-18T03:13:51.565Z,69.26
2022-10-18T03:14:51.124Z,69.20
2022-10-18T03:15:51.420Z,69.26
2022-10-18T03:16:51.058Z,69.20
2022-10-18T03:17:51.071Z,69.26
2022-10-18T03:18:57.498Z,68.91
2022-10-18T03:19:51.068Z,69.26
2022-10-18T03:20:51.399Z,69.37
2022-10-18T03:21:51.042Z,69.03
2022-10-18T03:22:50.995Z,69.54
2022-10-18T03:23:51.087Z,69.54
2022-10-18T03:24:57.228Z,69.54
2022-10-18T03:25:50.983Z,69.89
2022-10-18T03:26:51.288Z,69.78
2022-10-18T03:27:51.029Z,69.66
2022-10-18T03:28:51.007Z,69.89
2022-10-18T03:29:51.002Z,70.18
2022-10-18T03:30:57.286Z,70.36
2022-10-18T03:31:50.913Z,70.48
2022-10-18T03:32:51.216Z,70.66
2022-10-18T03:33:51.466Z,70.48
2022-10-18T03:34:51.285Z,70.48
2022-10-18T03:35:51.209Z,70.78
2022-10-18T03:36:57.454Z,71.02
2022-10-18T03:37:50.831Z,70.96
2022-10-18T03:38:51.476Z,70.84
2022-10-18T03:39:50.823Z,71.56
2022-10-18T03:40:51.451Z,71.08
2022-10-18T03:41:50.737Z,71.08
2022-10-18T03:42:57.050Z,71.38
2022-10-18T03:43:50.760Z,71.38
2022-10-18T03:44:50.699Z,71.56
2022-10-18T03:45:50.761Z,71.75
2022-10-18T03:46:51.073Z,71.56
2022-10-18T03:47:57.100Z,72.31
2022-10-18T03:48:50.757Z,71.08
2022-10-18T03:49:53.227Z,71.69
2022-10-18T03:50:55.851Z,72.18
2022-10-18T03:51:50.696Z,71.87
2022-10-18T03:52:51.086Z,71.99
2022-10-18T03:53:57.262Z,71.81
2022-10-18T03:54:50.594Z,72.37
2022-10-18T03:55:50.598Z,72.18
2022-10-18T03:57:12.273Z,71.56
2022-10-18T03:57:50.534Z,72.37
2022-10-18T03:58:51.771Z,72.87
2022-10-18T03:59:57.365Z,72.68
2022-10-18T04:00:50.977Z,72.87
2022-10-18T04:01:50.670Z,71.93
2022-10-18T04:02:53.346Z,72.56
2022-10-18T04:03:54.779Z,72.49
2022-10-18T04:04:50.875Z,72.43
2022-10-18T04:06:00.030Z,73.25
2022-10-18T04:06:50.536Z,72.93
2022-10-18T04:07:50.900Z,72.37
2022-10-18T04:08:50.465Z,73.25
2022-10-18T04:09:50.937Z,72.87
2022-10-18T04:10:50.517Z,73.57
2022-10-18T04:11:57.284Z,72.93
2022-10-18T04:12:50.802Z,73.71
2022-10-18T04:13:54.498Z,73.25
2022-10-18T04:14:50.380Z,73.64
2022-10-18T04:15:50.893Z,72.68
2022-10-18T04:16:59.497Z,73.90
2022-10-18T04:17:51.095Z,72.87
2022-10-18T04:18:51.838Z,72.81
2022-10-18T04:19:50.446Z,73.32
2022-10-18T04:20:50.370Z,73.38
2022-10-18T04:21:56.716Z,74.10
2022-10-18T04:22:50.293Z,73.77
2022-10-18T04:23:50.772Z,73.19
2022-10-18T04:24:53.949Z,73.83
2022-10-18T04:25:50.687Z,73.25
2022-10-18T04:26:51.032Z,74.10
2022-10-18T04:27:57.067Z,73.45
2022-10-18T04:28:50.929Z,74.10
2022-10-18T04:29:51.156Z,73.57
2022-10-18T04:30:50.836Z,73.71
2022-10-18T04:31:53.774Z,74.49
2022-10-18T04:33:03.324Z,74.76
2022-10-18T04:33:50.334Z,73.71
2022-10-18T04:34:51.864Z,73.90
2022-10-18T04:35:54.430Z,73.90
2022-10-18T04:36:50.747Z,73.90
2022-10-18T04:37:57.176Z,73.83
2022-10-18T04:38:50.124Z,73.90
2022-10-18T04:39:53.422Z,74.56
2022-10-18T04:40:50.098Z,73.96
2022-10-18T04:41:52.129Z,74.10
2022-10-18T04:42:50.751Z,73.71
2022-10-18T04:43:56.456Z,74.62
2022-10-18T04:44:50.469Z,74.76
2022-10-18T04:45:50.884Z,74.23
2022-10-18T04:46:50.369Z,73.83
2022-10-18T04:47:49.960Z,74.10
2022-10-18T04:48:57.796Z,74.69
2022-10-18T04:49:51.208Z,74.49
2022-10-18T04:50:50.345Z,74.36
2022-10-18T04:51:51.042Z,74.43
2022-10-18T04:52:51.366Z,74.49
2022-10-18T04:53:56.336Z,74.49
2022-10-18T04:54:49.801Z,74.49
2022-10-18T04:55:49.831Z,74.36
2022-10-18T04:56:50.386Z,74.29
2022-10-18T04:57:49.817Z,74.49
2022-10-18T04:59:33.442Z,125.28
2022-10-18T05:00:44.507Z,100.66
2022-10-18T05:01:34.577Z,92.82
2022-10-18T05:02:33.585Z,86.14
2022-10-18T05:03:33.118Z,83.23
2022-10-18T05:04:40.076Z,80.51
2022-10-18T05:05:49.860Z,79.14
2022-10-18T05:06:34.940Z,78.10
2022-10-18T05:07:34.788Z,77.89
2022-10-18T05:08:33.959Z,76.53
2022-10-18T05:09:39.237Z,76.39
2022-10-18T05:10:33.768Z,76.12
2022-10-18T05:11:33.187Z,75.70
2022-10-18T05:12:33.165Z,75.84
2022-10-18T05:13:32.915Z,75.70
2022-10-18T05:14:33.233Z,75.57
2022-10-18T05:15:40.436Z,75.43
2022-10-18T05:16:33.615Z,75.23
2022-10-18T05:17:33.185Z,75.23
2022-10-18T05:18:35.073Z,75.43
2022-10-18T05:19:33.101Z,75.23
2022-10-18T05:20:32.790Z,75.16
2022-10-18T05:21:43.268Z,75.16
2022-10-18T05:22:35.311Z,75.16
2022-10-18T05:23:33.153Z,75.36
2022-10-18T05:24:33.765Z,75.29
2022-10-18T05:25:33.110Z,75.29
2022-10-18T05:26:33.601Z,75.36
2022-10-18T05:27:39.896Z,75.43
2022-10-18T05:28:41.037Z,75.57
2022-10-18T05:29:38.402Z,75.09
2022-10-18T05:30:32.903Z,75.36
2022-10-18T05:31:33.480Z,75.43
2022-10-18T05:32:58.178Z,75.16
2022-10-18T05:33:32.503Z,75.23
2022-10-18T05:34:32.581Z,75.43
2022-10-18T05:35:32.477Z,75.50
2022-10-18T05:36:32.506Z,75.43
2022-10-18T05:37:38.875Z,75.16
2022-10-18T05:38:33.525Z,75.36
2022-10-18T05:39:33.888Z,75.36
2022-10-18T05:40:33.443Z,75.29
2022-10-18T05:41:32.499Z,75.50
2022-10-18T05:42:40.054Z,75.50
2022-10-18T05:43:33.443Z,75.16
2022-10-18T05:44:34.288Z,75.50
2022-10-18T05:45:33.559Z,75.36
2022-10-18T05:46:32.547Z,75.70
2022-10-18T05:47:39.351Z,75.70
2022-10-18T05:48:32.388Z,75.43
2022-10-18T05:49:33.610Z,75.64
2022-10-18T05:50:36.638Z,75.36
2022-10-18T05:51:34.923Z,75.70
2022-10-18T05:52:39.023Z,75.43
2022-10-18T05:53:36.667Z,75.43
2022-10-18T05:54:34.662Z,75.36
2022-10-18T05:55:38.426Z,75.23
2022-10-18T05:56:32.797Z,75.43
2022-10-18T05:57:39.103Z,75.57
2022-10-18T05:58:32.891Z,75.36
2022-10-18T05:59:35.333Z,75.70
2022-10-18T06:00:32.308Z,75.50
2022-10-18T06:01:35.029Z,75.36
2022-10-18T06:02:39.077Z,75.50
2022-10-18T06:03:33.305Z,75.43
2022-10-18T06:04:32.160Z,75.43
2022-10-18T06:05:32.556Z,75.36
2022-10-18T06:06:32.485Z,75.36
2022-10-18T06:07:38.533Z,75.57
2022-10-18T06:08:32.102Z,75.84
2022-10-18T06:09:34.301Z,75.16
2022-10-18T06:10:32.776Z,75.36
2022-10-18T06:11:32.524Z,75.23
2022-10-18T06:12:38.468Z,75.29
2022-10-18T06:13:33.703Z,75.43
2022-10-18T06:14:33.268Z,75.29
2022-10-18T06:15:33.139Z,75.03
2022-10-18T06:16:32.884Z,75.09
2022-10-18T06:17:32.741Z,75.03
2022-10-18T06:19:16.500Z,127.38
2022-10-18T06:20:16.837Z,102.26
2022-10-18T06:21:17.885Z,93.34
2022-10-18T06:22:16.834Z,87.12
2022-10-18T06:23:17.018Z,83.48
2022-10-18T06:24:23.143Z,81.53
2022-10-18T06:25:16.768Z,79.89
2022-10-18T06:26:17.509Z,78.84
2022-10-18T06:27:20.363Z,78.03
2022-10-18T06:28:16.461Z,77.67
2022-10-18T06:29:21.636Z,77.03
2022-10-18T06:30:23.059Z,76.67
2022-10-18T06:31:16.372Z,76.60
2022-10-18T06:32:16.821Z,76.25
2022-10-18T06:33:29.012Z,76.19
2022-10-18T06:34:17.165Z,75.91
2022-10-18T06:35:22.896Z,75.98
2022-10-18T06:36:18.302Z,75.70
2022-10-18T06:37:16.299Z,75.36
2022-10-18T06:38:16.561Z,75.70
2022-10-18T06:39:16.318Z,75.70
2022-10-18T06:40:16.230Z,75.43
2022-10-18T06:41:24.108Z,75.70
2022-10-18T06:42:19.093Z,75.84
2022-10-18T06:43:21.105Z,75.43
2022-10-18T06:44:16.211Z,75.50
2022-10-18T06:45:16.609Z,75.23
2022-10-18T06:46:16.480Z,75.23
2022-10-18T06:47:22.372Z,75.36
2022-10-18T06:48:16.220Z,75.03
2022-10-18T06:49:18.984Z,75.91
2022-10-18T06:50:16.509Z,75.57
2022-10-18T06:51:16.104Z,75.98
2022-10-18T06:52:16.229Z,75.43
2022-10-18T06:53:23.891Z,75.29
2022-10-18T06:54:18.648Z,75.70
2022-10-18T06:55:16.574Z,75.29
2022-10-18T06:56:17.148Z,75.23
2022-10-18T06:57:15.992Z,75.16
2022-10-18T06:58:16.162Z,75.16
2022-10-18T06:59:24.321Z,74.16
2022-10-18T07:00:16.501Z,74.36
2022-10-18T07:01:17.026Z,75.03
2022-10-18T07:02:16.795Z,75.70
2022-10-18T07:03:16.100Z,74.36
2022-10-18T07:04:16.014Z,74.29
2022-10-18T07:05:22.602Z,75.36
2022-10-18T07:06:18.714Z,75.43
2022-10-18T07:07:15.918Z,74.56
2022-10-18T07:08:16.062Z,75.70
2022-10-18T07:09:16.258Z,74.36
2022-10-18T07:10:15.946Z,75.29
2022-10-18T07:11:22.888Z,74.29
2022-10-18T07:12:16.379Z,74.23
2022-10-18T07:13:32.769Z,74.36
2022-10-18T07:14:18.063Z,74.29
2022-10-18T07:15:16.902Z,74.96
2022-10-18T07:16:22.921Z,74.69
2022-10-18T07:17:18.304Z,74.23
2022-10-18T07:18:15.874Z,74.10
2022-10-18T07:19:20.112Z,74.69
2022-10-18T07:20:15.780Z,74.76
2022-10-18T07:21:15.792Z,74.03
2022-10-18T07:22:22.001Z,74.36
2022-10-18T07:23:15.908Z,74.36
2022-10-18T07:24:16.923Z,75.16
2022-10-18T07:25:16.084Z,74.43
2022-10-18T07:26:16.191Z,74.23
2022-10-18T07:27:17.929Z,74.36
2022-10-18T07:28:22.356Z,74.43
2022-10-18T07:29:15.542Z,74.43
2022-10-18T07:30:17.816Z,74.96
2022-10-18T07:31:15.824Z,75.16
2022-10-18T07:32:15.540Z,75.23
2022-10-18T07:33:22.614Z,75.03
2022-10-18T07:34:19.420Z,74.36
2022-10-18T07:35:15.529Z,75.29
2022-10-18T07:36:15.911Z,74.82
2022-10-18T07:37:15.480Z,75.16
2022-10-18T07:38:16.428Z,74.36
2022-10-18T07:39:21.955Z,75.03
2022-10-18T07:40:15.810Z,74.23
2022-10-18T07:41:15.481Z,74.36
2022-10-18T07:42:15.473Z,74.16
2022-10-18T07:43:18.113Z,74.62
2022-10-18T07:44:21.819Z,74.56
2022-10-18T07:45:15.496Z,74.43
2022-10-18T07:46:15.672Z,74.62
2022-10-18T07:47:15.344Z,75.09
2022-10-18T07:48:15.388Z,74.62
2022-10-18T07:49:15.720Z,73.90
2022-10-18T07:50:21.662Z,74.16
2022-10-18T07:51:15.661Z,74.16
2022-10-18T07:52:15.251Z,74.89
2022-10-18T07:53:18.581Z,73.96
2022-10-18T07:54:15.539Z,74.62
2022-10-18T07:55:16.253Z,74.96
2022-10-18T07:56:21.949Z,74.49
2022-10-18T07:57:15.699Z,73.64
2022-10-18T07:58:15.671Z,74.49
2022-10-18T07:59:15.319Z,74.23
2022-10-18T08:00:15.589Z,73.45
2022-10-18T08:01:15.288Z,74.69
2022-10-18T08:02:22.411Z,73.51
2022-10-18T08:03:15.171Z,73.77
2022-10-18T08:04:16.503Z,74.36
2022-10-18T08:05:15.554Z,73.83
2022-10-18T08:06:15.127Z,74.23
2022-10-18T08:07:15.453Z,75.03
2022-10-18T08:08:21.458Z,74.29
2022-10-18T08:09:15.565Z,74.36
2022-10-18T08:10:15.228Z,74.36
2022-10-18T08:11:15.378Z,74.43
2022-10-18T08:12:15.038Z,73.83
2022-10-18T08:13:21.868Z,74.23
2022-10-18T08:14:15.104Z,73.83
2022-10-18T08:15:15.334Z,74.03
2022-10-18T08:16:15.363Z,74.10
2022-10-18T08:17:15.392Z,75.09
2022-10-18T08:18:14.900Z,73.83
2022-10-18T08:19:22.773Z,74.82
2022-10-18T08:20:29.902Z,74.10
2022-10-18T08:21:16.410Z,74.23
2022-10-18T08:22:18.003Z,75.29
2022-10-18T08:23:15.027Z,74.23
2022-10-18T08:24:15.334Z,74.76
2022-10-18T08:25:21.595Z,74.23
2022-10-18T08:26:15.212Z,74.23
2022-10-18T08:27:21.665Z,74.62
2022-10-18T08:28:24.684Z,74.89
2022-10-18T08:29:25.705Z,75.09
2022-10-18T08:30:16.291Z,74.49
2022-10-18T08:31:22.556Z,74.36
2022-10-18T08:32:16.234Z,74.49
2022-10-18T08:33:14.980Z,74.23
2022-10-18T08:34:19.518Z,75.29
2022-10-18T08:35:15.044Z,74.43
2022-10-18T08:36:21.341Z,75.29
2022-10-18T08:37:15.262Z,75.29
2022-10-18T08:38:18.132Z,75.03
2022-10-18T08:39:14.800Z,74.16
2022-10-18T08:40:15.078Z,75.03
2022-10-18T08:41:21.226Z,75.36
2022-10-18T08:42:14.755Z,75.29
2022-10-18T08:43:19.357Z,74.43
2022-10-18T08:44:16.659Z,74.56
2022-10-18T08:45:30.098Z,75.16
2022-10-18T08:46:23.031Z,74.62
2022-10-18T08:47:18.243Z,74.62
2022-10-18T08:48:15.524Z,74.62
2022-10-18T08:49:15.055Z,74.69
2022-10-18T08:50:35.652Z,74.89
2022-10-18T08:51:22.038Z,74.96
2022-10-18T08:52:14.529Z,75.03
2022-10-18T08:53:15.635Z,75.03
2022-10-18T08:54:15.563Z,75.29
2022-10-18T08:55:14.933Z,75.23
2022-10-18T08:56:14.812Z,75.29
2022-10-18T08:58:00.415Z,126.61
2022-10-18T08:59:00.861Z,102.26
2022-10-18T09:00:01.334Z,93.34
2022-10-18T09:01:00.244Z,87.40
2022-10-18T09:02:01.021Z,83.73
2022-10-18T09:03:01.239Z,81.13
2022-10-18T09:04:08.658Z,79.66
2022-10-18T09:05:02.590Z,78.62
2022-10-18T09:06:00.461Z,78.10
2022-10-18T09:07:03.333Z,77.60
2022-10-18T09:07:59.963Z,77.24
2022-10-18T09:09:00.134Z,76.89
2022-10-18T09:10:07.328Z,76.89
2022-10-18T09:11:00.115Z,76.39
2022-10-18T09:12:02.499Z,76.39
2022-10-18T09:13:00.000Z,76.25
2022-10-18T09:13:59.817Z,76.12
2022-10-18T09:15:06.338Z,76.19
2022-10-18T09:16:00.816Z,76.25
2022-10-18T09:17:00.771Z,76.12
2022-10-18T09:18:00.585Z,76.12
2022-10-18T09:19:00.562Z,76.25
2022-10-18T09:20:02.820Z,75.70
2022-10-18T09:21:06.505Z,75.77
2022-10-18T09:21:59.757Z,75.91
2022-10-18T09:23:01.038Z,75.70
2022-10-18T09:23:59.780Z,75.98
2022-10-18T09:25:00.094Z,75.77
2022-10-18T09:26:07.084Z,76.05
2022-10-18T09:27:00.413Z,76.05
2022-10-18T09:28:00.031Z,75.70
2022-10-18T09:29:00.095Z,75.64
2022-10-18T09:29:59.688Z,75.91
2022-10-18T09:31:06.430Z,76.12
2022-10-18T09:31:59.597Z,75.98
2022-10-18T09:33:00.354Z,76.12
2022-10-18T09:34:00.984Z,75.91
2022-10-18T09:35:00.722Z,76.12
2022-10-18T09:35:59.768Z,76.19
2022-10-18T09:37:06.029Z,76.25
2022-10-18T09:38:00.776Z,75.98
2022-10-18T09:39:08.093Z,76.05
2022-10-18T09:40:00.522Z,75.98
2022-10-18T09:41:00.499Z,76.19
2022-10-18T09:42:00.530Z,76.12
2022-10-18T09:43:05.854Z,76.05
2022-10-18T09:43:59.614Z,76.05
2022-10-18T09:44:59.980Z,76.12
2022-10-18T09:45:59.803Z,76.12
2022-10-18T09:47:00.962Z,76.25
2022-10-18T09:48:00.385Z,75.84
2022-10-18T09:49:05.958Z,75.98
2022-10-18T09:49:59.865Z,75.84
2022-10-18T09:50:59.461Z,76.12
2022-10-18T09:51:59.464Z,75.91
2022-10-18T09:52:59.736Z,75.70
2022-10-18T09:54:01.101Z,76.12
2022-10-18T09:55:07.439Z,75.84
2022-10-18T09:56:00.302Z,75.77
2022-10-18T09:56:59.410Z,75.91
2022-10-18T09:58:01.457Z,75.70
2022-10-18T09:58:59.775Z,75.77
2022-10-18T10:00:05.965Z,75.84
2022-10-18T10:00:59.652Z,75.84
2022-10-18T10:02:00.490Z,75.57
2022-10-18T10:03:10.823Z,75.98
2022-10-18T10:03:59.994Z,75.50
2022-10-18T10:05:06.316Z,75.77
2022-10-18T10:06:00.209Z,75.84
2022-10-18T10:06:59.651Z,75.77
2022-10-18T10:08:00.466Z,75.77
2022-10-18T10:08:59.770Z,75.70
2022-10-18T10:10:07.195Z,75.64
2022-10-18T10:10:59.872Z,75.77
2022-10-18T10:11:59.790Z,75.91
2022-10-18T10:12:59.185Z,75.70
2022-10-18T10:13:59.234Z,75.70
2022-10-18T10:15:06.560Z,75.57
2022-10-18T10:15:59.157Z,75.64
2022-10-18T10:16:59.945Z,75.43
2022-10-18T10:18:00.104Z,75.77
2022-10-18T10:19:10.412Z,75.50
2022-10-18T10:20:07.719Z,75.57
2022-10-18T10:21:00.086Z,75.43
2022-10-18T10:21:59.125Z,75.57
2022-10-18T10:22:59.189Z,75.57
2022-10-18T10:24:00.020Z,75.57
2022-10-18T10:25:08.792Z,75.57
2022-10-18T10:26:00.018Z,75.64
2022-10-18T10:26:58.983Z,75.29
2022-10-18T10:27:59.376Z,75.43
2022-10-18T10:28:59.874Z,75.57
2022-10-18T10:30:02.915Z,75.43
2022-10-18T10:31:07.714Z,75.64
2022-10-18T10:31:59.055Z,75.70
2022-10-18T10:32:59.083Z,75.64
2022-10-18T10:33:59.167Z,75.57
2022-10-18T10:34:59.227Z,75.29
2022-10-18T10:35:58.896Z,75.64
2022-10-18T10:37:05.177Z,75.64
2022-10-18T10:37:59.074Z,75.57
2022-10-18T10:38:58.888Z,75.57
2022-10-18T10:40:17.934Z,75.84
2022-10-18T10:41:00.753Z,75.64
2022-10-18T10:42:07.972Z,75.57
2022-10-18T10:43:12.838Z,75.57
2022-10-18T10:44:00.564Z,75.77
2022-10-18T10:44:59.446Z,75.77
2022-10-18T10:45:59.121Z,75.70
2022-10-18T10:46:58.768Z,75.50
2022-10-18T10:48:05.554Z,75.64
2022-10-18T10:49:21.719Z,75.70
2022-10-18T10:49:59.956Z,75.57
2022-10-18T10:50:58.977Z,75.57
2022-10-18T10:52:08.999Z,75.57
2022-10-18T10:53:06.751Z,75.64
2022-10-18T10:53:58.949Z,75.23
2022-10-18T10:55:06.244Z,75.50
2022-10-18T10:55:59.975Z,75.84
2022-10-18T10:56:58.506Z,76.19
2022-10-18T10:58:11.096Z,75.23
2022-10-18T10:58:58.524Z,75.70
2022-10-18T10:59:58.918Z,75.23
2022-10-18T11:00:58.832Z,75.09
2022-10-18T11:01:58.607Z,75.16
2022-10-18T11:03:05.914Z,74.82
2022-10-18T11:04:06.624Z,75.16
2022-10-18T11:04:58.454Z,76.12
2022-10-18T11:05:59.079Z,75.91
2022-10-18T11:06:59.116Z,75.43
2022-10-18T11:07:58.752Z,74.76
2022-10-18T11:08:58.354Z,74.56
2022-10-18T11:10:27.607Z,130.65
2022-10-18T11:11:28.153Z,102.82
2022-10-18T11:12:26.967Z,93.13
2022-10-18T11:13:26.924Z,87.58
2022-10-18T11:14:27.385Z,83.64
2022-10-18T11:15:33.860Z,81.76
2022-10-18T11:16:26.802Z,78.54
2022-10-18T11:17:27.005Z,78.47
2022-10-18T11:18:26.850Z,77.31
2022-10-18T11:19:28.424Z,76.53
2022-10-18T11:20:27.323Z,75.77
2022-10-18T11:21:34.195Z,76.39
2022-10-18T11:22:26.762Z,76.53
2022-10-18T11:23:26.846Z,75.23
2022-10-18T11:24:26.734Z,74.89
2022-10-18T11:25:27.883Z,74.82
2022-10-18T11:26:26.712Z,75.70
2022-10-18T11:27:39.888Z,75.36
2022-10-18T11:28:27.064Z,75.57
2022-10-18T11:29:33.326Z,74.16
2022-10-18T11:30:27.150Z,74.43
2022-10-18T11:31:27.706Z,75.03
2022-10-18T11:32:26.715Z,74.16
2022-10-18T11:34:03.622Z,74.49
2022-10-18T11:34:27.562Z,74.43
2022-10-18T11:35:27.883Z,74.03
2022-10-18T11:36:49.308Z,74.56
2022-10-18T11:37:32.151Z,75.03
2022-10-18T11:38:28.139Z,74.49
2022-10-18T11:39:33.132Z,74.96
2022-10-18T11:40:26.482Z,74.23
2022-10-18T11:41:26.567Z,74.82
2022-10-18T11:42:26.696Z,74.10
2022-10-18T11:43:30.220Z,74.23
2022-10-18T11:44:26.583Z,74.36
2022-10-18T11:45:33.231Z,74.49
2022-10-18T11:46:47.508Z,75.09
2022-10-18T11:47:26.525Z,74.49
2022-10-18T11:48:26.482Z,74.56
2022-10-18T11:49:26.459Z,74.96
2022-10-18T11:50:26.864Z,74.56
2022-10-18T11:51:34.385Z,74.36
2022-10-18T11:52:27.822Z,75.03
2022-10-18T11:53:26.541Z,74.56
2022-10-18T11:54:26.877Z,74.89
2022-10-18T11:55:28.954Z,75.23
2022-10-18T11:56:28.006Z,74.49
2022-10-18T11:57:34.386Z,74.76
2022-10-18T11:58:27.332Z,75.16
2022-10-18T11:59:27.300Z,75.57
2022-10-18T12:01:28.581Z,74.82
2022-10-18T12:02:26.334Z,75.09
2022-10-18T12:03:33.608Z,75.16
2022-10-18T12:04:26.487Z,74.76
2022-10-18T12:05:26.635Z,74.23
2022-10-18T12:06:27.329Z,75.03
2022-10-18T12:07:33.514Z,74.82
2022-10-18T12:08:34.424Z,74.76
2022-10-18T12:09:26.324Z,75.03
2022-10-18T12:10:39.205Z,74.23
2022-10-18T12:11:27.116Z,74.36
2022-10-18T12:12:26.586Z,73.96
2022-10-18T12:13:26.253Z,74.29
2022-10-18T12:14:32.609Z,73.96
2022-10-18T12:15:26.082Z,74.43
2022-10-18T12:16:49.480Z,74.43
2022-10-18T12:17:42.873Z,73.90
2022-10-18T12:18:27.795Z,73.90
2022-10-18T12:19:36.077Z,73.90
2022-10-18T12:20:26.359Z,74.43
2022-10-18T12:21:26.391Z,73.32
2022-10-18T12:22:26.401Z,74.03
2022-10-18T12:23:26.264Z,74.23
2022-10-18T12:24:25.981Z,74.36
2022-10-18T12:25:32.677Z,74.36
2022-10-18T12:26:26.552Z,73.25
2022-10-18T12:27:28.415Z,74.36
2022-10-18T12:28:25.974Z,73.51
2022-10-18T12:29:27.303Z,73.77
2022-10-18T12:30:32.548Z,73.96
2022-10-18T12:31:26.870Z,73.45
2022-10-18T12:32:26.236Z,74.56
2022-10-18T12:33:28.855Z,73.90
2022-10-18T12:34:26.160Z,74.36
2022-10-18T12:35:47.903Z,74.43
2022-10-18T12:36:25.965Z,74.76
2022-10-18T12:37:25.823Z,74.49
2022-10-18T12:38:25.909Z,73.90
2022-10-18T12:39:33.445Z,74.43
2022-10-18T12:40:35.827Z,73.83
2022-10-18T12:41:26.058Z,74.76
2022-10-18T12:42:26.807Z,74.36
2022-10-18T12:43:29.663Z,74.03
2022-10-18T12:44:26.489Z,74.10
2022-10-18T12:45:27.009Z,73.90
2022-10-18T12:47:26.570Z,74.29
2022-10-18T12:48:26.567Z,74.49
2022-10-18T12:49:25.796Z,73.57
2022-10-18T12:50:26.434Z,74.03
2022-10-18T12:51:25.891Z,74.43
2022-10-18T12:52:32.008Z,74.49
2022-10-18T12:53:27.100Z,74.10
2022-10-18T12:54:26.045Z,74.23
2022-10-18T12:55:28.144Z,73.51
2022-10-18T12:56:25.962Z,73.57
2022-10-18T12:57:32.235Z,74.23